sensor_id;sensor_type;location;lat;lon;timestamp;P1;durP1;ratioP1;P2;durP2;ratioP2
39694;SDS011;25367;-35.352;149.036;2023-10-09T08:22:12;19.17;;;8.15;;
39694;SDS011;25367;-35.352;149.036;2023-10-09T08:24:42;20.40;;;8.30;;
39694;SDS011;25367;-35.352;149.036;2023-10-09T08:27:11;18.92;;;7.43;;
39694;SDS011;25367;-35.352;149.036;2023-10-09T08:29:41;24.27;;;7.22;;
39694;SDS011;25367;-35.352;149.036;2023-10-09T08:32:10;16.95;;;7.07;;
39694;SDS011;25367;-35.352;149.036;2023-10-09T08:34:40;18.38;;;6.03;;
39694;SDS011;25367;-35.352;149.036;2023-10-09T08:37:09;15.55;;;6.68;;
39694;SDS011;25367;-35.352;149.036;2023-10-09T08:39:40;15.15;;;6.22;;
39694;SDS011;25367;-35.352;149.036;2023-10-09T08:42:10;16.20;;;6.72;;
39694;SDS011;25367;-35.352;149.036;2023-10-09T08:44:40;16.20;;;7.13;;
39694;SDS011;25367;-35.352;149.036;2023-10-09T08:47:11;13.90;;;5.88;;
39694;SDS011;25367;-35.352;149.036;2023-10-09T08:49:41;14.38;;;6.18;;
39694;SDS011;25367;-35.352;149.036;2023-10-09T08:52:10;17.70;;;6.82;;
39694;SDS011;25367;-35.352;149.036;2023-10-09T08:54:45;14.32;;;6.10;;
39694;SDS011;25367;-35.352;149.036;2023-10-09T08:57:15;14.75;;;6.00;;
39694;SDS011;25367;-35.352;149.036;2023-10-09T08:59:46;13.45;;;5.38;;
39694;SDS011;25367;-35.352;149.036;2023-10-09T09:02:15;14.40;;;5.72;;
39694;SDS011;25367;-35.352;149.036;2023-10-09T09:04:45;16.13;;;5.70;;
39694;SDS011;25367;-35.352;149.036;2023-10-09T09:07:30;15.00;;;5.85;;
39694;SDS011;25367;-35.352;149.036;2023-10-09T09:10:00;9.23;;;5.30;;
39694;SDS011;25367;-35.352;149.036;2023-10-09T09:12:29;12.55;;;5.20;;
39694;SDS011;25367;-35.352;149.036;2023-10-09T09:14:59;12.52;;;5.45;;
39694;SDS011;25367;-35.352;149.036;2023-10-09T09:17:30;10.73;;;4.95;;
39694;SDS011;25367;-35.352;149.036;2023-10-09T09:20:07;12.90;;;6.20;;
39694;SDS011;25367;-35.352;149.036;2023-10-09T09:22:55;9.02;;;4.70;;
39694;SDS011;25367;-35.352;149.036;2023-10-09T09:25:24;13.95;;;4.75;;
39694;SDS011;25367;-35.352;149.036;2023-10-09T09:28:08;11.70;;;3.95;;
39694;SDS011;25367;-35.352;149.036;2023-10-09T09:30:38;11.77;;;4.90;;
39694;SDS011;25367;-35.352;149.036;2023-10-09T09:33:20;8.85;;;3.80;;
39694;SDS011;25367;-35.352;149.036;2023-10-09T09:35:57;12.87;;;4.27;;
39694;SDS011;25367;-35.352;149.036;2023-10-09T09:38:31;10.93;;;3.38;;
39694;SDS011;25367;-35.352;149.036;2023-10-09T09:41:02;9.18;;;3.50;;
39694;SDS011;25367;-35.352;149.036;2023-10-09T09:43:31;8.10;;;3.63;;
39694;SDS011;25367;-35.352;149.036;2023-10-09T09:46:01;7.53;;;3.75;;
39694;SDS011;25367;-35.352;149.036;2023-10-09T09:48:31;7.63;;;3.30;;
39694;SDS011;25367;-35.352;149.036;2023-10-09T09:51:04;8.20;;;3.40;;
39694;SDS011;25367;-35.352;149.036;2023-10-09T09:53:37;8.88;;;3.42;;
39694;SDS011;25367;-35.352;149.036;2023-10-09T09:56:07;7.97;;;3.25;;
39694;SDS011;25367;-35.352;149.036;2023-10-09T09:58:38;11.73;;;4.70;;
39694;SDS011;25367;-35.352;149.036;2023-10-09T10:01:10;15.05;;;4.95;;
39694;SDS011;25367;-35.352;149.036;2023-10-09T10:03:44;9.98;;;4.45;;
39694;SDS011;25367;-35.352;149.036;2023-10-09T10:06:18;11.75;;;5.43;;
39694;SDS011;25367;-35.352;149.036;2023-10-09T10:08:51;11.85;;;4.68;;
39694;SDS011;25367;-35.352;149.036;2023-10-09T10:14:11;11.48;;;5.88;;
39694;SDS011;25367;-35.352;149.036;2023-10-09T10:22:28;10.35;;;5.03;;
39694;SDS011;25367;-35.352;149.036;2023-10-09T10:24:59;12.98;;;5.50;;
39694;SDS011;25367;-35.352;149.036;2023-10-09T10:27:29;10.23;;;4.60;;
39694;SDS011;25367;-35.352;149.036;2023-10-09T10:32:56;12.45;;;5.20;;
39694;SDS011;25367;-35.352;149.036;2023-10-09T10:35:25;11.23;;;5.00;;
39694;SDS011;25367;-35.352;149.036;2023-10-09T10:37:55;11.82;;;5.50;;
39694;SDS011;25367;-35.352;149.036;2023-10-09T10:40:26;12.23;;;5.22;;
39694;SDS011;25367;-35.352;149.036;2023-10-09T10:42:56;11.40;;;4.80;;
39694;SDS011;25367;-35.352;149.036;2023-10-09T10:45:25;10.27;;;4.60;;
39694;SDS011;25367;-35.352;149.036;2023-10-09T10:47:55;11.98;;;5.35;;
39694;SDS011;25367;-35.352;149.036;2023-10-09T10:50:24;10.10;;;4.97;;
39694;SDS011;25367;-35.352;149.036;2023-10-09T10:52:54;13.65;;;5.13;;
39694;SDS011;25367;-35.352;149.036;2023-10-09T10:55:40;8.30;;;4.60;;
39694;SDS011;25367;-35.352;149.036;2023-10-09T10:58:23;12.43;;;4.82;;
39694;SDS011;25367;-35.352;149.036;2023-10-09T11:00:55;9.77;;;4.35;;
39694;SDS011;25367;-35.352;149.036;2023-10-09T11:03:25;10.45;;;4.20;;
39694;SDS011;25367;-35.352;149.036;2023-10-09T11:05:55;12.48;;;3.80;;
39694;SDS011;25367;-35.352;149.036;2023-10-09T11:08:24;10.57;;;4.45;;
39694;SDS011;25367;-35.352;149.036;2023-10-09T11:10:56;9.82;;;4.50;;
39694;SDS011;25367;-35.352;149.036;2023-10-09T11:13:40;9.68;;;4.38;;
39694;SDS011;25367;-35.352;149.036;2023-10-09T11:16:09;9.52;;;4.43;;
39694;SDS011;25367;-35.352;149.036;2023-10-09T11:18:39;11.85;;;4.93;;
39694;SDS011;25367;-35.352;149.036;2023-10-09T11:21:09;10.45;;;4.00;;
39694;SDS011;25367;-35.352;149.036;2023-10-09T11:23:41;11.27;;;4.45;;
39694;SDS011;25367;-35.352;149.036;2023-10-09T11:26:14;11.70;;;3.90;;
39694;SDS011;25367;-35.352;149.036;2023-10-09T11:28:45;9.05;;;4.75;;
39694;SDS011;25367;-35.352;149.036;2023-10-09T11:31:32;9.70;;;3.80;;
39694;SDS011;25367;-35.352;149.036;2023-10-09T11:34:02;10.00;;;4.20;;
39694;SDS011;25367;-35.352;149.036;2023-10-09T11:36:44;8.65;;;3.75;;
39694;SDS011;25367;-35.352;149.036;2023-10-09T11:39:23;10.02;;;4.10;;
39694;SDS011;25367;-35.352;149.036;2023-10-09T11:42:02;7.78;;;3.67;;
39694;SDS011;25367;-35.352;149.036;2023-10-09T11:44:35;8.05;;;3.30;;
39694;SDS011;25367;-35.352;149.036;2023-10-09T11:49:36;6.95;;;3.33;;
39694;SDS011;25367;-35.352;149.036;2023-10-09T11:52:16;6.30;;;3.22;;
39694;SDS011;25367;-35.352;149.036;2023-10-09T11:54:45;8.02;;;3.45;;
39694;SDS011;25367;-35.352;149.036;2023-10-09T11:57:17;7.63;;;3.63;;
39694;SDS011;25367;-35.352;149.036;2023-10-09T11:59:46;8.98;;;4.00;;
39694;SDS011;25367;-35.352;149.036;2023-10-09T12:02:16;8.35;;;3.90;;
39694;SDS011;25367;-35.352;149.036;2023-10-09T12:04:45;10.70;;;3.28;;
39694;SDS011;25367;-35.352;149.036;2023-10-09T12:07:15;7.72;;;3.10;;
39694;SDS011;25367;-35.352;149.036;2023-10-09T12:09:44;7.32;;;3.67;;
39694;SDS011;25367;-35.352;149.036;2023-10-09T21:20:03;6.43;;;2.40;;
39694;SDS011;25367;-35.352;149.036;2023-10-09T21:25:02;4.32;;;2.15;;
39694;SDS011;25367;-35.352;149.036;2023-10-09T21:27:32;9.27;;;2.20;;
39694;SDS011;25367;-35.352;149.036;2023-10-09T21:30:01;4.00;;;2.22;;
39694;SDS011;25367;-35.352;149.036;2023-10-09T21:32:31;18.70;;;2.72;;
39694;SDS011;25367;-35.352;149.036;2023-10-09T21:35:04;8.10;;;1.83;;
39694;SDS011;25367;-35.352;149.036;2023-10-09T21:40:02;2.88;;;1.42;;
39694;SDS011;25367;-35.352;149.036;2023-10-09T21:42:32;3.30;;;1.75;;
39694;SDS011;25367;-35.352;149.036;2023-10-09T21:45:01;15.80;;;2.50;;
39694;SDS011;25367;-35.352;149.036;2023-10-09T21:47:31;12.45;;;2.08;;
39694;SDS011;25367;-35.352;149.036;2023-10-09T21:50:02;7.57;;;1.83;;
39694;SDS011;25367;-35.352;149.036;2023-10-09T21:52:32;12.35;;;2.58;;
39694;SDS011;25367;-35.352;149.036;2023-10-09T21:55:02;7.50;;;2.13;;
39694;SDS011;25367;-35.352;149.036;2023-10-09T21:57:31;10.82;;;2.10;;
39694;SDS011;25367;-35.352;149.036;2023-10-09T22:00:01;8.13;;;2.25;;
39694;SDS011;25367;-35.352;149.036;2023-10-09T22:02:39;10.77;;;1.80;;
39694;SDS011;25367;-35.352;149.036;2023-10-09T22:05:12;12.15;;;2.10;;
39694;SDS011;25367;-35.352;149.036;2023-10-09T22:07:41;7.85;;;1.92;;
39694;SDS011;25367;-35.352;149.036;2023-10-09T22:10:11;8.48;;;2.15;;
39694;SDS011;25367;-35.352;149.036;2023-10-09T22:12:40;6.20;;;2.00;;
39694;SDS011;25367;-35.352;149.036;2023-10-09T22:15:10;7.78;;;2.15;;
39694;SDS011;25367;-35.352;149.036;2023-10-09T22:17:40;9.45;;;1.98;;
39694;SDS011;25367;-35.352;149.036;2023-10-09T22:20:14;10.55;;;2.53;;
39694;SDS011;25367;-35.352;149.036;2023-10-09T22:22:45;11.07;;;2.40;;
39694;SDS011;25367;-35.352;149.036;2023-10-09T22:25:15;14.68;;;1.88;;
39694;SDS011;25367;-35.352;149.036;2023-10-09T22:27:45;6.25;;;2.35;;
39694;SDS011;25367;-35.352;149.036;2023-10-09T22:30:14;7.28;;;2.08;;
39694;SDS011;25367;-35.352;149.036;2023-10-09T22:32:45;15.85;;;2.75;;
39694;SDS011;25367;-35.352;149.036;2023-10-09T22:35:17;10.32;;;2.42;;
39694;SDS011;25367;-35.352;149.036;2023-10-09T22:37:47;6.40;;;1.90;;
39694;SDS011;25367;-35.352;149.036;2023-10-09T22:40:16;4.30;;;1.85;;
39694;SDS011;25367;-35.352;149.036;2023-10-09T22:42:45;3.38;;;1.55;;
39694;SDS011;25367;-35.352;149.036;2023-10-09T22:45:15;5.07;;;1.90;;
39694;SDS011;25367;-35.352;149.036;2023-10-09T22:47:44;8.93;;;2.15;;
39694;SDS011;25367;-35.352;149.036;2023-10-09T22:50:17;14.23;;;2.00;;
39694;SDS011;25367;-35.352;149.036;2023-10-09T22:52:47;4.43;;;1.92;;
39694;SDS011;25367;-35.352;149.036;2023-10-09T22:55:16;9.68;;;1.48;;
39694;SDS011;25367;-35.352;149.036;2023-10-09T22:57:46;9.73;;;2.17;;
39694;SDS011;25367;-35.352;149.036;2023-10-09T23:00:16;7.05;;;1.48;;
39694;SDS011;25367;-35.352;149.036;2023-10-09T23:02:45;10.68;;;1.75;;
39694;SDS011;25367;-35.352;149.036;2023-10-09T23:05:18;11.18;;;2.20;;
39694;SDS011;25367;-35.352;149.036;2023-10-09T23:07:47;5.72;;;1.80;;
39694;SDS011;25367;-35.352;149.036;2023-10-09T23:10:17;10.82;;;1.60;;
39694;SDS011;25367;-35.352;149.036;2023-10-09T23:12:46;7.28;;;1.73;;
39694;SDS011;25367;-35.352;149.036;2023-10-09T23:15:16;7.47;;;1.70;;
39694;SDS011;25367;-35.352;149.036;2023-10-09T23:17:47;4.28;;;1.50;;
39694;SDS011;25367;-35.352;149.036;2023-10-09T23:20:19;3.78;;;1.58;;
39694;SDS011;25367;-35.352;149.036;2023-10-09T23:22:49;6.00;;;1.55;;
39694;SDS011;25367;-35.352;149.036;2023-10-09T23:25:19;4.60;;;1.60;;
39694;SDS011;25367;-35.352;149.036;2023-10-09T23:27:48;3.63;;;1.45;;
39694;SDS011;25367;-35.352;149.036;2023-10-09T23:30:18;5.22;;;1.65;;
39694;SDS011;25367;-35.352;149.036;2023-10-09T23:32:47;3.70;;;1.88;;
39694;SDS011;25367;-35.352;149.036;2023-10-09T23:35:20;6.93;;;1.55;;
39694;SDS011;25367;-35.352;149.036;2023-10-09T23:37:50;5.07;;;1.52;;
39694;SDS011;25367;-35.352;149.036;2023-10-09T23:40:20;7.90;;;1.40;;
39694;SDS011;25367;-35.352;149.036;2023-10-09T23:42:49;9.68;;;1.58;;
39694;SDS011;25367;-35.352;149.036;2023-10-09T23:45:19;11.70;;;2.08;;
39694;SDS011;25367;-35.352;149.036;2023-10-09T23:47:48;8.48;;;1.88;;
39694;SDS011;25367;-35.352;149.036;2023-10-09T23:50:20;8.18;;;1.85;;
39694;SDS011;25367;-35.352;149.036;2023-10-09T23:52:50;5.77;;;1.60;;
39694;SDS011;25367;-35.352;149.036;2023-10-09T23:55:20;9.95;;;1.52;;
39694;SDS011;25367;-35.352;149.036;2023-10-09T23:57:49;10.05;;;1.55;;
